Time;durP1;ratioP1;P1;durP2;ratioP2;P2;SDS_P1;SDS_P2;PMS_P1;PMS_P2;Temp;Humidity;BMP_temperature;BMP_pressure;BME280_temperature;BME280_humidity;BME280_pressure;Samples;Min_cycle;Max_cycle;Signal;HPM_P1;HPM_P2
2021/12/03 00:04:44;;;;;;;6.53;3.15;;;;;;;1.27;85.16;100003.25;20742672;28;20054;-75
2021/12/03 00:14:46;;;;;;;6.53;3.45;;;;;;;1.23;85.20;100030.69;20741795;28;20062;-75
2021/12/03 00:24:47;;;;;;;7.57;3.78;;;;;;;1.26;85.45;100027.28;20741307;28;20045;-76
2021/12/03 00:34:49;;;;;;;8.10;4.00;;;;;;;1.16;85.35;100052.06;20738906;28;20050;-76
2021/12/03 00:44:53;;;;;;;7.50;3.70;;;;;;;1.05;86.20;100071.63;20739452;28;20050;-74
2021/12/03 00:54:54;;;;;;;8.17;4.20;;;;;;;1.05;85.99;100078.50;20737889;28;20616;-74
2021/12/03 01:04:56;;;;;;;9.35;3.95;;;;;;;0.98;86.15;100080.97;20735921;28;20053;-75
2021/12/03 01:14:58;;;;;;;11.20;4.50;;;;;;;1.07;85.28;100085.44;20735962;28;20065;-74
2021/12/03 01:25:00;;;;;;;11.65;4.60;;;;;;;0.97;86.02;100096.41;20736132;28;20092;-74
2021/12/03 01:35:02;;;;;;;10.82;5.03;;;;;;;0.83;88.21;100100.44;20735147;28;20054;-74
2021/12/03 01:45:08;;;;;;;11.07;4.78;;;;;;;0.58;89.40;100109.44;20734571;28;20100;-75
2021/12/03 01:55:12;;;;;;;9.77;4.47;;;;;;;0.33;89.61;100136.38;20734308;28;20112;-75
2021/12/03 02:05:14;;;;;;;11.17;4.20;;;;;;;0.08;90.73;100120.38;20734184;28;20046;-74
2021/12/03 02:15:18;;;;;;;12.90;5.32;;;;;;;-0.05;91.41;100136.38;20735034;28;20105;-75
2021/12/03 02:25:23;;;;;;;14.18;4.97;;;;;;;-0.24;90.51;100141.94;20749016;28;20088;-75
2021/12/03 02:35:25;;;;;;;10.32;5.15;;;;;;;-0.34;91.02;100152.00;20747872;28;20054;-73
2021/12/03 02:45:26;;;;;;;13.32;6.40;;;;;;;-0.44;91.93;100175.78;20747509;28;20050;-72
2021/12/03 02:55:28;;;;;;;17.77;6.22;;;;;;;-0.50;92.00;100185.06;20747354;28;20116;-72
2021/12/03 03:05:30;;;;;;;13.50;6.93;;;;;;;-0.68;92.97;100193.16;20746183;28;20109;-73
2021/12/03 03:15:33;;;;;;;17.27;7.20;;;;;;;-0.77;93.59;100196.34;20742878;28;20136;-72
2021/12/03 03:25:35;;;;;;;19.50;7.95;;;;;;;-0.81;94.15;100204.84;20744710;28;20149;-73
2021/12/03 03:35:37;;;;;;;18.55;8.68;;;;;;;-0.92;93.29;100216.50;20742216;28;20565;-73
2021/12/03 03:45:41;;;;;;;16.13;8.15;;;;;;;-1.04;93.55;100232.47;20742670;28;20266;-73
2021/12/03 03:55:42;;;;;;;23.17;9.93;;;;;;;-1.09;93.88;100239.19;20742430;28;20067;-74
2021/12/03 04:05:44;;;;;;;22.90;8.77;;;;;;;-1.16;94.55;100242.38;20741234;28;20096;-73
2021/12/03 04:15:46;;;;;;;24.52;9.43;;;;;;;-1.20;94.54;100240.53;20740758;28;20108;-73
2021/12/03 04:25:48;;;;;;;21.58;9.57;;;;;;;-1.29;94.19;100246.31;20739708;28;20058;-73
2021/12/03 04:35:50;;;;;;;24.50;10.10;;;;;;;-1.29;94.30;100248.88;20739446;28;20233;-73
2021/12/03 04:45:52;;;;;;;20.65;9.07;;;;;;;-1.35;94.74;100262.38;20738808;28;20057;-73
2021/12/03 04:55:53;;;;;;;31.77;11.32;;;;;;;-1.39;95.47;100273.41;20737770;28;20060;-73
2021/12/03 05:05:59;;;;;;;28.70;11.05;;;;;;;-1.35;95.51;100272.66;20735999;28;20062;-73
2021/12/03 05:16:02;;;;;;;27.52;11.25;;;;;;;-1.35;95.28;100282.06;20736366;28;20054;-73
2021/12/03 05:26:03;;;;;;;29.08;12.32;;;;;;;-1.40;94.94;100315.31;20735706;28;20056;-74
2021/12/03 05:36:05;;;;;;;30.05;13.82;;;;;;;-1.46;95.60;100304.84;20734784;28;20132;-73
2021/12/03 05:46:07;;;;;;;29.42;13.38;;;;;;;-1.46;95.54;100304.84;20735105;28;20144;-74
2021/12/03 05:56:08;;;;;;;31.58;13.50;;;;;;;-1.48;95.75;100321.91;20753167;28;20501;-73
2021/12/03 06:06:10;;;;;;;31.80;13.65;;;;;;;-1.46;96.05;100320.25;20761196;28;20041;-73
2021/12/03 06:16:13;;;;;;;38.72;14.00;;;;;;;-1.47;95.86;100336.50;20761165;28;20050;-73
2021/12/03 06:26:15;;;;;;;27.30;12.30;;;;;;;-1.48;95.59;100327.06;20760321;28;20135;-73
2021/12/03 06:36:16;;;;;;;29.63;12.48;;;;;;;-1.35;94.59;100339.44;20759457;28;20050;-74
2021/12/03 06:46:18;;;;;;;26.73;12.52;;;;;;;-1.29;94.94;100359.31;20759870;28;20050;-74
2021/12/03 06:56:24;;;;;;;27.35;12.93;;;;;;;-1.32;94.90;100374.63;20760352;28;20050;-72
2021/12/03 07:06:25;;;;;;;28.23;12.30;;;;;;;-1.39;94.63;100388.97;20752031;28;20136;-71
2021/12/03 07:16:27;;;;;;;28.70;13.32;;;;;;;-1.20;94.10;100392.09;20743968;28;20050;-73
2021/12/03 07:26:28;;;;;;;22.58;9.57;;;;;;;-0.94;93.61;100398.94;20744716;28;20062;-72
2021/12/03 07:36:30;;;;;;;18.70;8.77;;;;;;;-0.54;93.15;100388.13;20744335;28;20599;-73
2021/12/03 07:46:31;;;;;;;20.20;10.55;;;;;;;-0.31;92.23;100401.63;20744147;28;20108;-74
2021/12/03 07:56:33;;;;;;;24.10;9.35;;;;;;;-0.15;91.21;100412.34;20743564;28;20081;-73
2021/12/03 08:06:38;;;;;;;22.48;10.15;;;;;;;-0.04;91.33;100423.81;20735630;28;20104;-74
2021/12/03 08:16:40;;;;;;;20.40;9.80;;;;;;;0.13;90.67;100414.84;20732707;28;20049;-75
2021/12/03 08:26:41;;;;;;;17.70;8.25;;;;;;;0.37;89.22;100426.59;20730097;28;20054;-74
2021/12/03 08:36:43;;;;;;;18.13;8.15;;;;;;;0.47;88.74;100407.97;20727696;28;20108;-75
2021/12/03 08:46:46;;;;;;;17.02;7.07;;;;;;;0.71;86.85;100424.03;20731158;28;20050;-74
2021/12/03 08:56:48;;;;;;;15.68;6.60;;;;;;;0.95;85.74;100420.31;20730770;28;20100;-74
2021/12/03 09:06:50;;;;;;;17.20;7.15;;;;;;;1.00;85.63;100429.00;20728999;28;20100;-74
2021/12/03 09:27:12;;;;;;;18.77;7.85;;;;;;;1.20;84.61;100420.06;20727786;28;20045;-76
2021/12/03 09:37:13;;;;;;;18.45;8.27;;;;;;;1.38;84.40;100398.06;20719161;28;20109;-76
2021/12/03 09:47:16;;;;;;;15.95;7.68;;;;;;;1.52;83.81;100399.22;20727288;28;20136;-76
2021/12/03 09:57:43;;;;;;;15.52;7.78;;;;;;;1.76;83.28;100399.72;20728628;28;20062;-77
2021/12/03 10:18:19;;;;;;;19.83;7.25;;;;;;;2.01;81.43;100379.50;20719712;28;20049;-77
2021/12/03 12:32:37;;;;;;;15.45;7.80;;;;;;;3.25;77.08;100221.09;20728333;28;20038;-74
2021/12/03 13:35:17;;;;;;;14.35;7.65;;;;;;;3.17;77.06;100155.50;20729334;28;20045;-74
2021/12/03 13:46:01;;;;;;;13.02;7.25;;;;;;;3.14;77.02;100176.13;20729410;28;20053;-75
2021/12/03 14:45:37;;;;;;;10.93;5.72;;;;;;;3.03;76.88;100095.84;20742324;28;20473;-73
2021/12/03 14:55:41;;;;;;;11.25;5.28;;;;;;;3.07;75.29;100108.84;20741529;28;20525;-75
2021/12/03 15:06:03;;;;;;;12.73;5.83;;;;;;;3.03;75.68;100098.44;20761072;28;20556;-75
2021/12/03 15:37:41;;;;;;;12.00;5.40;;;;;;;2.87;76.87;100057.75;20736861;28;20066;-75
2021/12/03 15:58:02;;;;;;;12.38;5.68;;;;;;;2.82;77.57;100052.53;20734416;28;20057;-72
2021/12/03 16:59:33;;;;;;;14.55;6.05;;;;;;;2.87;77.08;99978.44;20729519;28;20399;-72
2021/12/03 17:30:38;;;;;;;14.45;6.38;;;;;;;2.84;76.62;99939.66;20728013;28;20058;-71
2021/12/03 19:03:09;;;;;;;7.22;4.20;;;;;;;2.93;72.41;99823.38;20733238;28;20054;-71
2021/12/03 19:13:16;;;;;;;9.93;4.38;;;;;;;2.89;72.29;99823.34;20738868;28;20053;-72
2021/12/03 19:23:17;;;;;;;8.55;4.35;;;;;;;2.91;72.64;99780.25;20737694;28;20062;-72
2021/12/03 19:33:19;;;;;;;9.52;4.60;;;;;;;2.95;70.89;99763.91;20735184;28;20108;-72
2021/12/03 19:43:35;;;;;;;7.70;3.53;;;;;;;2.93;71.62;99739.78;20735272;28;20137;-72
2021/12/03 19:53:43;;;;;;;6.65;3.05;;;;;;;3.01;71.21;99731.16;20735347;28;20132;-72
2021/12/03 20:03:44;;;;;;;6.55;3.10;;;;;;;3.07;69.17;99699.31;20734687;28;20115;-71
2021/12/03 20:13:49;;;;;;;7.85;3.30;;;;;;;3.18;68.78;99696.75;20731125;28;20055;-72
2021/12/03 20:24:28;;;;;;;5.88;2.60;;;;;;;3.21;68.92;99660.53;20737490;28;20054;-73
2021/12/03 20:34:28;;;;;;;5.05;2.40;;;;;;;3.27;68.05;99664.00;20729947;28;20064;-72
2021/12/03 20:44:52;;;;;;;7.40;2.50;;;;;;;3.36;66.54;99641.63;20732187;28;20104;-72
2021/12/03 21:25:55;;;;;;;4.73;2.27;;;;;;;3.52;66.02;99595.03;20709178;28;20054;-72
2021/12/03 21:46:21;;;;;;;7.80;2.40;;;;;;;3.64;65.00;99537.22;20728514;28;20119;-72
2021/12/03 21:56:24;;;;;;;9.63;2.88;;;;;;;3.60;64.80;99519.97;20727106;28;20712;-72
2021/12/03 22:06:28;;;;;;;5.10;2.17;;;;;;;3.56;64.61;99513.94;20725789;28;20053;-72
2021/12/03 22:16:30;;;;;;;5.07;2.35;;;;;;;3.63;64.74;99519.09;20725005;28;20116;-72
2021/12/03 22:26:31;;;;;;;5.78;2.38;;;;;;;3.76;62.79;99495.75;20726484;28;20049;-72
2021/12/03 22:36:33;;;;;;;7.63;3.30;;;;;;;3.82;63.49;99480.19;20732031;28;20049;-71
2021/12/03 22:46:45;;;;;;;6.43;2.90;;;;;;;3.78;63.58;99456.91;20741278;28;20050;-71
2021/12/03 22:56:47;;;;;;;9.85;3.40;;;;;;;3.81;62.47;99431.88;20739291;28;20483;-71
2021/12/03 23:06:49;;;;;;;6.97;2.60;;;;;;;3.84;61.88;99416.34;20742355;28;20053;-70
2021/12/03 23:16:52;;;;;;;9.55;3.63;;;;;;;3.83;62.45;99399.09;20745976;28;20064;-70
2021/12/03 23:26:54;;;;;;;7.82;3.42;;;;;;;3.86;62.11;99367.97;20744737;28;20111;-70
2021/12/03 23:36:58;;;;;;;8.10;3.47;;;;;;;3.99;62.92;99347.22;20743194;28;20094;-71
2021/12/03 23:46:59;;;;;;;6.27;2.80;;;;;;;3.88;63.78;99333.44;20742810;28;20066;-71
2021/12/03 23:57:02;;;;;;;4.40;1.90;;;;;;;3.90;64.92;99311.88;20742751;28;20049;-71
